^^
Grace C. Lehan Memorial Weather Station Historical Data
Daily Summary for May 3, 2021 Units:  English    Metric   Both
Daily Weekly Monthly Yearly
  High: Low: Average:
Temperature: 78.9 °F 57.3 °F 68.7 °F
Dew Point: 61.8 °F 53.8 °F 57.7 °F
Humidity: 91.7% 46.5% 70%
Wind Speed: 0.8mph 0mph 0mph
Wind Gust: 5mph - -
Wind- - NNW
Pressure: 30.11 in 30.04 in -
Precipitation: 0.00 in    
 
 
Tabular Data for May 3, 2021
Time Temperature Dew Point Pressure Wind Wind Speed Wind Gust Humidity Rainfall Rate (Hourly) solar
00:04 64.9 °F 57.2 °F 30.04 in Calm     76% 0.00 in 0 W/m2
00:09 64.8 °F 57.1 °F 30.04 in Calm     76% 0.00 in 0 W/m2
00:14 64.8 °F 57.4 °F 30.04 in Calm     76.8% 0.00 in 0 W/m2
00:19 64.7 °F 57.2 °F 30.05 in Calm     76.7% 0.00 in 0 W/m2
00:24 64.7 °F 57.3 °F 30.05 in Calm     77% 0.00 in 0 W/m2
00:29 64.6 °F 57.3 °F 30.05 in Calm     77.4% 0.00 in 0 W/m2
00:34 64.4 °F 57.4 °F 30.05 in Calm     78% 0.00 in 0 W/m2
00:39 64.2 °F 57.1 °F 30.05 in Calm     77.6% 0.00 in 0 W/m2
00:44 64.1 °F 57.1 °F 30.05 in Calm     78% 0.00 in 0 W/m2
00:49 63.9 °F 56.9 °F 30.06 in Calm     78% 0.00 in 0 W/m2
00:54 63.8 °F 56.8 °F 30.06 in Calm     77.7% 0.00 in 0 W/m2
00:59 63.9 °F 56.5 °F 30.06 in Calm     77% 0.00 in 0 W/m2
01:04 64 °F 56.6 °F 30.06 in Calm     77% 0.00 in 0 W/m2
01:09 64 °F 56.7 °F 30.06 in Calm     77% 0.00 in 0 W/m2
01:14 64 °F 56.7 °F 30.06 in Calm     77% 0.00 in 0 W/m2
01:19 64 °F 56.6 °F 30.06 in Calm     77% 0.00 in 0 W/m2
01:24 63.9 °F 56.4 °F 30.06 in Calm     76.6% 0.00 in 0 W/m2
01:29 63.7 °F 56 °F 30.06 in Calm     76% 0.00 in 0 W/m2
01:34 63.6 °F 55.9 °F 30.06 in Calm     76% 0.00 in 0 W/m2
01:39 63.5 °F 55.8 °F 30.06 in Calm     76% 0.00 in 0 W/m2
01:44 63.5 °F 55.9 °F 30.06 in Calm     76.3% 0.00 in 0 W/m2
01:49 63.5 °F 56.1 °F 30.06 in Calm     76.8% 0.00 in 0 W/m2
01:54 63.5 °F 56.1 °F 30.06 in Calm     76.9% 0.00 in 0 W/m2
01:59 63.5 °F 55.8 °F 30.06 in Calm     76% 0.00 in 0 W/m2
02:04 63.5 °F 55.7 °F 30.06 in Calm     75.9% 0.00 in 0 W/m2
02:09 63.4 °F 55.7 °F 30.06 in Calm     76% 0.00 in 0 W/m2
02:14 63.3 °F 55.4 °F 30.06 in Calm     75.3% 0.00 in 0 W/m2
02:19 63.2 °F 55.4 °F 30.06 in Calm     75.7% 0.00 in 0 W/m2
02:24 63.2 °F 55.6 °F 30.06 in Calm     76.3% 0.00 in 0 W/m2
02:29 63 °F 55.3 °F 30.06 in Calm     76% 0.00 in 0 W/m2
02:34 62.8 °F 55.1 °F 30.06 in Calm     76% 0.00 in 0 W/m2
02:39 62.6 °F 55.1 °F 30.06 in Calm     76.4% 0.00 in 0 W/m2
02:44 62.4 °F 55.1 °F 30.06 in Calm     77% 0.00 in 0 W/m2
02:49 62.2 °F 55.1 °F 30.06 in Calm     77.6% 0.00 in 0 W/m2
02:54 62 °F 55.1 °F 30.06 in Calm     78.1% 0.00 in 0 W/m2
02:59 61.8 °F 55.2 °F 30.06 in Calm     79% 0.00 in 0 W/m2
03:04 61.6 °F 55 °F 30.06 in Calm     79% 0.00 in 0 W/m2
03:09 61.4 °F 55.2 °F 30.06 in Calm     79.9% 0.00 in 0 W/m2
03:14 61.2 °F 55 °F 30.06 in Calm     80% 0.00 in 0 W/m2
03:19 61 °F 55 °F 30.06 in Calm     80.5% 0.00 in 0 W/m2
03:24 60.8 °F 55.1 °F 30.07 in Calm     81.3% 0.00 in 0 W/m2
03:29 60.6 °F 54.7 °F 30.07 in Calm     81% 0.00 in 0 W/m2
03:34 60.4 °F 54.7 °F 30.07 in Calm     81.4% 0.00 in 0 W/m2
03:39 60.3 °F 54.7 °F 30.07 in Calm     82% 0.00 in 0 W/m2
03:44 60.1 °F 54.8 °F 30.07 in Calm     82.7% 0.00 in 0 W/m2
03:49 59.9 °F 54.8 °F 30.07 in Calm     83% 0.00 in 0 W/m2
03:54 59.8 °F 54.9 °F 30.07 in Calm     84% 0.00 in 0 W/m2
03:59 59.6 °F 54.8 °F 30.07 in Calm     84% 0.00 in 0 W/m2
04:04 59.5 °F 55 °F 30.07 in Calm     85% 0.00 in 0 W/m2
04:09 59.4 °F 54.9 °F 30.07 in Calm     85% 0.00 in 0 W/m2
04:14 59.2 °F 54.7 °F 30.07 in Calm     85% 0.00 in 0 W/m2
04:19 59 °F 54.6 °F 30.07 in Calm     85.4% 0.00 in 0 W/m2
04:24 58.9 °F 54.7 °F 30.07 in Calm     86% 0.00 in 0 W/m2
04:29 58.7 °F 54.6 °F 30.07 in Calm     86% 0.00 in 0 W/m2
04:34 58.6 °F 54.4 °F 30.07 in Calm     86% 0.00 in 0 W/m2
04:39 58.5 °F 54.3 °F 30.07 in Calm     86% 0.00 in 0 W/m2
04:44 58.4 °F 54.2 °F 30.07 in Calm     86% 0.00 in 0 W/m2
04:49 58.3 °F 54.4 °F 30.07 in Calm     86.9% 0.00 in 0 W/m2
04:54 58.2 °F 54.4 °F 30.07 in Calm     87% 0.00 in 0 W/m2
04:59 58.1 °F 54.3 °F 30.07 in Calm     87% 0.00 in 0 W/m2
05:04 58 °F 54.2 °F 30.07 in Calm     87% 0.00 in 0 W/m2
05:09 57.9 °F 54.1 °F 30.08 in Calm     87% 0.00 in 0 W/m2
05:14 57.8 °F 54 °F 30.08 in Calm     87% 0.00 in 0 W/m2
05:19 57.7 °F 54 °F 30.08 in Calm     87.5% 0.00 in 0 W/m2
05:24 57.7 °F 53.9 °F 30.08 in Calm     87.2% 0.00 in 0 W/m2
05:29 57.6 °F 53.8 °F 30.08 in Calm     87% 0.00 in 0 W/m2
05:34 57.5 °F 53.9 °F 30.08 in Calm     87.7% 0.00 in 0 W/m2
05:39 57.4 °F 53.9 °F 30.08 in Calm     88% 0.00 in 0 W/m2
05:44 57.4 °F 53.9 °F 30.08 in Calm     88% 0.00 in 0 W/m2
05:49 57.4 °F 54.1 °F 30.08 in Calm     88.6% 0.00 in 0 W/m2
05:54 57.3 °F 54.1 °F 30.08 in Calm     89% 0.00 in 9 W/m2
05:59 57.3 °F 54.1 °F 30.08 in Calm     89% 0.00 in 11 W/m2
06:04 57.3 °F 54.1 °F 30.08 in Calm     89% 0.00 in 11 W/m2
06:09 57.3 °F 54.1 °F 30.08 in Calm     89% 0.00 in 12 W/m2
06:14 57.3 °F 54.1 °F 30.09 in Calm     89% 0.00 in 19 W/m2
06:19 57.3 °F 54.1 °F 30.08 in Calm     89% 0.00 in 23 W/m2
06:24 57.3 °F 54.3 °F 30.08 in Calm     89.6% 0.00 in 25 W/m2
06:29 57.5 °F 54.6 °F 30.08 in Calm     90% 0.00 in 28 W/m2
06:34 57.6 °F 54.7 °F 30.08 in Calm     90% 0.00 in 33 W/m2
06:39 57.8 °F 54.9 °F 30.08 in Calm     90% 0.00 in 44 W/m2
06:44 57.9 °F 55.3 °F 30.09 in Calm     91% 0.00 in 51 W/m2
06:49 58.1 °F 55.5 °F 30.09 in Calm     91% 0.00 in 63 W/m2
06:54 58.4 °F 55.8 °F 30.09 in Calm     91% 0.00 in 102 W/m2
06:59 58.8 °F 56.4 °F 30.09 in Calm     91.7% 0.00 in 146 W/m2
07:04 59.3 °F 56.7 °F 30.09 in Calm     91.1% 0.00 in 169 W/m2
07:09 60 °F 57.3 °F 30.09 in Calm     90.9% 0.00 in 174 W/m2
07:14 60.6 °F 57.4 °F 30.09 in Calm     89.1% 0.00 in 120 W/m2
07:19 61 °F 57 °F 30.09 in Calm     86.6% 0.00 in 83 W/m2
07:24 61.3 °F 57.1 °F 30.09 in Calm     86% 0.00 in 105 W/m2
07:29 61.5 °F 57.2 °F 30.09 in Calm     85.6% 0.00 in 132 W/m2
07:34 61.6 °F 57 °F 30.09 in Calm     84.6% 0.00 in 149 W/m2
07:39 61.8 °F 57.1 °F 30.09 in Calm     84.6% 0.00 in 123 W/m2
07:44 62 °F 57.3 °F 30.09 in Calm     84.4% 0.00 in 120 W/m2
07:49 62.3 °F 57.4 °F 30.10 in Calm     84% 0.00 in 181 W/m2
07:54 62.4 °F 57.2 °F 30.10 in Calm     83% 0.00 in 185 W/m2
07:59 62.7 °F 57.4 °F 30.10 in Calm     82.6% 0.00 in 204 W/m2
08:09 63.5 °F 57.8 °F 30.10 in Calm     81.5% 0.00 in 234 W/m2
08:14 64.1 °F 58.4 °F 30.10 in Calm     81.7% 0.00 in 244 W/m2
08:19 64.5 °F 58 °F 30.10 in Calm     79.5% 0.00 in 244 W/m2
08:24 64.9 °F 57.6 °F 30.10 in Calm     77.4% 0.00 in 232 W/m2
08:29 65.1 °F 57.4 °F 30.10 in Calm     76.2% 0.00 in 258 W/m2
08:34 65.4 °F 57.6 °F 30.10 in Calm     75.8% 0.00 in 276 W/m2
08:39 65.8 °F 58.1 °F 30.10 in Calm     76.1% 0.00 in 246 W/m2
08:44 66.1 °F 58 °F 30.10 in Calm     75.1% 0.00 in 258 W/m2
08:49 66.4 °F 58.1 °F 30.10 in Calm     74.6% 0.00 in 374 W/m2
08:54 66.8 °F 58.2 °F 30.10 in Calm     73.7% 0.00 in 399 W/m2
08:59 67.4 °F 59 °F 30.10 in Calm     74.4% 0.00 in 397 W/m2
09:04 68 °F 59.1 °F 30.10 in Calm     73.3% 0.00 in 392 W/m2
09:09 68.5 °F 59.2 °F 30.10 in Calm     72.2% 0.00 in 322 W/m2
09:14 68.7 °F 59 °F 30.10 in Calm     71.2% 0.00 in 290 W/m2
09:19 69 °F 59.3 °F 30.10 in Calm     71.3% 0.00 in 283 W/m2
09:24 69.1 °F 58.7 °F 30.10 in Calm     69.6% 0.00 in 299 W/m2
09:29 69 °F 59.2 °F 30.11 in Calm     70.9% 0.00 in 292 W/m2
09:34 69.1 °F 59 °F 30.10 in Calm     70.1% 0.00 in 336 W/m2
09:39 69.2 °F 59.5 °F 30.10 in Calm     71.2% 0.00 in 369 W/m2
09:44 69.6 °F 60.1 °F 30.11 in Calm     71.7% 0.00 in 434 W/m2
09:49 70.1 °F 60.4 °F 30.11 in Calm     71.4% 0.00 in 510 W/m2
09:54 70.6 °F 60.3 °F 30.11 in Calm     69.8% 0.00 in 508 W/m2
09:59 71.3 °F 60.2 °F 30.11 in Calm     68% 0.00 in 448 W/m2
10:04 71.6 °F 59.3 °F 30.11 in Calm     65.2% 0.00 in 471 W/m2
10:09 71.9 °F 59.9 °F 30.11 in Calm     65.7% 0.00 in 457 W/m2
10:14 71.9 °F 59.7 °F 30.11 in Calm     65.5% 0.00 in 422 W/m2
10:19 72.2 °F 60 °F 30.11 in Calm     65.5% 0.00 in 475 W/m2
10:24 72.2 °F 59.6 °F 30.11 in Calm     64.5% 0.00 in 418 W/m2
10:29 72.4 °F 59.6 °F 30.11 in Calm     64% 0.00 in 394 W/m2
10:34 72.6 °F 59.4 °F 30.11 in Calm     63.3% 0.00 in 431 W/m2
10:39 72.6 °F 59.7 °F 30.11 in Calm     63.9% 0.00 in 397 W/m2
10:44 72.7 °F 59.7 °F 30.11 in Calm     63.7% 0.00 in 353 W/m2
10:49 72.7 °F 59.1 °F 30.11 in Calm     62.3% 0.00 in 345 W/m2
10:54 72.8 °F 60.3 °F 30.11 in Calm     65% 0.00 in 302 W/m2
10:59 72.8 °F 59.9 °F 30.11 in Calm     63.9% 0.00 in 332 W/m2
11:04 72.9 °F 59.7 °F 30.11 in Calm     63.4% 0.00 in 383 W/m2
11:09 73 °F 60.3 °F 30.11 in Calm     64.4% 0.00 in 406 W/m2
11:14 73.2 °F 60.4 °F 30.11 in Calm     64.2% 0.00 in 390 W/m2
11:19 73.3 °F 59.3 °F 30.10 in Calm     61.5% 0.00 in 357 W/m2
11:24 73.4 °F 58.9 °F 30.10 in Calm     60.5% 0.00 in 376 W/m2
11:29 73.5 °F 59.4 °F 30.10 in Calm     61.5% 0.00 in 394 W/m2
11:34 73.7 °F 60 °F 30.10 in Calm     62.1% 0.00 in 394 W/m2
11:39 73.9 °F 60.4 °F 30.10 in Calm     62.7% 0.00 in 410 W/m2
11:44 74.1 °F 60.6 °F 30.10 in Calm     62.7% 0.00 in 410 W/m2
11:49 74.4 °F 60.6 °F 30.10 in Calm     62.2% 0.00 in 431 W/m2
11:54 74.6 °F 60.5 °F 30.10 in Calm     61.4% 0.00 in 431 W/m2
11:59 74.8 °F 60.7 °F 30.10 in Calm     61.6% 0.00 in 427 W/m2
12:00 74.8 °F 60 °F 30.10 in Calm     60% 0.00 in 427 W/m2
12:09 75 °F 60.4 °F 30.09 in Calm     60.6% 0.00 in 445 W/m2
12:14 75.2 °F 60.2 °F 30.09 in Calm     59.8% 0.00 in 439 W/m2
12:19 75.3 °F 60.8 °F 30.09 in Calm     60.7% 0.00 in 413 W/m2
12:24 75.4 °F 60.3 °F 30.09 in Calm     59.5% 0.00 in 369 W/m2
12:29 75.4 °F 60 °F 30.09 in Calm     58.7% 0.00 in 339 W/m2
12:34 75.6 °F 60.3 °F 30.09 in Calm     59% 0.00 in 345 W/m2
12:39 75.7 °F 60.9 °F 30.09 in Calm     60.1% 0.00 in 359 W/m2
12:44 75.7 °F 60.9 °F 30.09 in Calm     60% 0.00 in 385 W/m2
12:49 75.9 °F 61.3 °F 30.09 in Calm     60.6% 0.00 in 385 W/m2
12:54 76 °F 60.3 °F 30.09 in Calm     58.3% 0.00 in 338 W/m2
12:59 76.2 °F 60.5 °F 30.08 in Calm     58.4% 0.00 in 327 W/m2
13:04 76.3 °F 60.6 °F 30.08 in Calm     58.2% 0.00 in 339 W/m2
13:09 76.4 °F 60.8 °F 30.08 in Calm     58.5% 0.00 in 339 W/m2
13:14 76.4 °F 61.1 °F 30.08 in Calm     59.1% 0.00 in 346 W/m2
13:19 76.3 °F 60.3 °F 30.08 in Calm     57.6% 0.00 in 311 W/m2
13:24 76 °F 60 °F 30.08 in Calm     57.7% 0.00 in 299 W/m2
13:29 75.8 °F 60.9 °F 30.08 in Calm     59.9% 0.00 in 292 W/m2
13:34 75.9 °F 60.8 °F 30.08 in Calm     59.4% 0.00 in 278 W/m2
13:39 76.1 °F 61.3 °F 30.08 in Calm     60.3% 0.00 in 279 W/m2
13:44 76.1 °F 60.6 °F 30.08 in Calm     58.6% 0.00 in 278 W/m2
13:49 76.1 °F 61.8 °F 30.08 in Calm     61.1% 0.00 in 279 W/m2
13:54 76.2 °F 61.8 °F 30.08 in Calm     60.9% 0.00 in 283 W/m2
13:59 76.4 °F 61.5 °F 30.08 in Calm     59.9% 0.00 in 283 W/m2
14:04 76.4 °F 60.2 °F 30.08 in Calm     57.3% 0.00 in 264 W/m2
14:09 76.4 °F 60.1 °F 30.08 in Calm     57.2% 0.00 in 308 W/m2
14:14 76.2 °F 60.9 °F 30.08 in Calm     59.1% 0.00 in 360 W/m2
14:19 76.1 °F 60.2 °F 30.08 in Calm     57.9% 0.00 in 352 W/m2
14:24 76.2 °F 60.9 °F 30.07 in NNW 0.3 mph 5 mph 59.2% 0.00 in 446 W/m2
14:29 76.4 °F 61 °F 30.07 in NNW 0.1 mph 5 mph 59% 0.00 in 540 W/m2
14:34 76.7 °F 60.7 °F 30.07 in NNW 0.2 mph 5 mph 57.8% 0.00 in 582 W/m2
14:39 77.1 °F 61.1 °F 30.07 in NNW 0.5 mph 4 mph 57.9% 0.00 in 782 W/m2
14:44 77.6 °F 60.9 °F 30.07 in Calm   4 mph 56.5% 0.00 in 954 W/m2
14:49 78.1 °F 60.3 °F 30.07 in NNW 0.8 mph 4 mph 54.2% 0.00 in 814 W/m2
14:54 78.5 °F 60.3 °F 30.07 in NNW 0.6 mph 5 mph 53.6% 0.00 in 814 W/m2
14:59 78.7 °F 59.6 °F 30.07 in NNW 0.1 mph 5 mph 51.9% 0.00 in 520 W/m2
15:04 78.8 °F 58.9 °F 30.07 in NNW 0.1 mph 5 mph 50.5% 0.00 in 357 W/m2
15:09 78.9 °F 58.1 °F 30.06 in Calm   2 mph 48.9% 0.00 in 353 W/m2
15:14 78.9 °F 58.1 °F 30.06 in Calm   3 mph 48.9% 0.00 in 343 W/m2
15:19 78.7 °F 57.5 °F 30.06 in NNW 0.2 mph 3 mph 48.2% 0.00 in 345 W/m2
15:24 78.5 °F 56.3 °F 30.06 in Calm   3 mph 46.5% 0.00 in 439 W/m2
15:29 78.3 °F 57.2 °F 30.06 in Calm   3 mph 48.3% 0.00 in 403 W/m2
15:34 78.1 °F 58.1 °F 30.06 in NNW 0.1 mph 3 mph 50.3% 0.00 in 346 W/m2
15:39 77.9 °F 57 °F 30.06 in Calm   2 mph 48.8% 0.00 in 527 W/m2
15:44 77.7 °F 55.6 °F 30.05 in Calm   2 mph 46.5% 0.00 in 469 W/m2
15:49 77.8 °F 56.2 °F 30.05 in NNW 0.2 mph 3 mph 47.3% 0.00 in 432 W/m2
15:54 77.8 °F 57.1 °F 30.05 in Calm   3 mph 49% 0.00 in 350 W/m2
15:59 77.8 °F 57.3 °F 30.05 in Calm   3 mph 49.3% 0.00 in 327 W/m2
16:04 77.7 °F 56.2 °F 30.05 in Calm   3 mph 47.5% 0.00 in 327 W/m2
16:09 77.6 °F 56.1 °F 30.05 in Calm     47.6% 0.00 in 318 W/m2
16:14 77.5 °F 55.9 °F 30.05 in Calm     47.4% 0.00 in 302 W/m2
16:19 77.3 °F 56.1 °F 30.04 in Calm     48% 0.00 in 193 W/m2
16:24 77.1 °F 55.2 °F 30.04 in Calm     46.8% 0.00 in 209 W/m2
16:29 76.9 °F 55 °F 30.05 in Calm     46.6% 0.00 in 200 W/m2
16:34 76.8 °F 54.8 °F 30.05 in Calm     46.5% 0.00 in 190 W/m2
16:39 76.7 °F 55.5 °F 30.04 in Calm     47.9% 0.00 in 195 W/m2
16:44 76.7 °F 57.3 °F 30.04 in Calm     51.1% 0.00 in 192 W/m2
16:49 76.9 °F 57.8 °F 30.04 in Calm     51.7% 0.00 in 176 W/m2
16:54 77 °F 57.1 °F 30.04 in Calm     50.3% 0.00 in 178 W/m2
16:59 77 °F 58 °F 30.04 in Calm     51.9% 0.00 in 169 W/m2
17:04 77 °F 57.4 °F 30.04 in Calm     50.9% 0.00 in 167 W/m2
17:09 76.9 °F 57.4 °F 30.04 in Calm     51% 0.00 in 165 W/m2
17:14 76.8 °F 57.1 °F 30.04 in Calm     50.6% 0.00 in 141 W/m2
17:19 76.8 °F 57.8 °F 30.04 in Calm     51.9% 0.00 in 142 W/m2
17:24 76.8 °F 58 °F 30.04 in Calm     52.3% 0.00 in 132 W/m2
17:29 76.9 °F 57.8 °F 30.04 in Calm     51.8% 0.00 in 134 W/m2
17:34 76.9 °F 57.4 °F 30.04 in Calm     51% 0.00 in 141 W/m2
17:39 76.7 °F 56.3 °F 30.04 in Calm   1 mph 49.3% 0.00 in 141 W/m2
17:44 76.7 °F 56.8 °F 30.04 in Calm   1 mph 50.2% 0.00 in 120 W/m2
17:49 76.6 °F 56.6 °F 30.04 in Calm   1 mph 50% 0.00 in 81 W/m2
17:54 76.6 °F 57 °F 30.04 in Calm   1 mph 50.7% 0.00 in 69 W/m2
17:59 76.6 °F 57.5 °F 30.04 in Calm   1 mph 51.6% 0.00 in 65 W/m2
18:04 76.5 °F 57.3 °F 30.05 in Calm   1 mph 51.6% 0.00 in 63 W/m2
18:09 76.3 °F 57.8 °F 30.05 in Calm     52.7% 0.00 in 70 W/m2
18:14 76 °F 57.2 °F 30.05 in Calm     52.2% 0.00 in 79 W/m2
18:19 75.8 °F 57.1 °F 30.05 in Calm     52.3% 0.00 in 79 W/m2
18:24 75.7 °F 57.4 °F 30.05 in Calm     53.2% 0.00 in 72 W/m2
18:29 75.6 °F 57.7 °F 30.05 in Calm     53.8% 0.00 in 69 W/m2
18:34 75.5 °F 57.4 °F 30.04 in Calm     53.4% 0.00 in 63 W/m2
18:39 75.3 °F 56.8 °F 30.05 in Calm     52.5% 0.00 in 58 W/m2
18:44 75.2 °F 56.8 °F 30.04 in Calm     52.7% 0.00 in 44 W/m2
18:49 75.1 °F 56.8 °F 30.04 in Calm     53% 0.00 in 30 W/m2
18:54 74.9 °F 56.5 °F 30.04 in Calm     52.8% 0.00 in 32 W/m2
18:59 74.7 °F 56.4 °F 30.04 in Calm     53% 0.00 in 35 W/m2
19:04 74.5 °F 55.9 °F 30.04 in Calm     52.5% 0.00 in 35 W/m2
19:09 74.3 °F 56.1 °F 30.05 in Calm     53% 0.00 in 28 W/m2
19:14 74.2 °F 56.5 °F 30.05 in Calm     54.1% 0.00 in 21 W/m2
19:19 74 °F 56.5 °F 30.04 in Calm     54.3% 0.00 in 21 W/m2
19:24 73.8 °F 57 °F 30.05 in Calm     55.6% 0.00 in 19 W/m2
19:29 73.7 °F 57.2 °F 30.05 in Calm     56.3% 0.00 in 18 W/m2
19:34 73.5 °F 57 °F 30.04 in Calm     56.3% 0.00 in 14 W/m2
19:39 73.3 °F 56.9 °F 30.04 in Calm     56.6% 0.00 in 14 W/m2
19:44 73.1 °F 56.9 °F 30.05 in Calm     56.9% 0.00 in 12 W/m2
19:49 72.9 °F 57 °F 30.05 in Calm     57.4% 0.00 in 11 W/m2
19:54 72.8 °F 57.6 °F 30.05 in Calm     58.9% 0.00 in 9 W/m2
19:59 72.6 °F 58.4 °F 30.05 in Calm     61% 0.00 in 0 W/m2
20:09 72.2 °F 59 °F 30.05 in Calm     63.3% 0.00 in 0 W/m2
20:14 72 °F 59.4 °F 30.05 in Calm     64.6% 0.00 in 0 W/m2
20:19 71.7 °F 59.5 °F 30.05 in Calm     65.4% 0.00 in 0 W/m2
20:24 71.5 °F 60 °F 30.05 in Calm     67.1% 0.00 in 0 W/m2
20:29 71.1 °F 60 °F 30.05 in Calm     68% 0.00 in 0 W/m2
20:34 70.7 °F 59.7 °F 30.05 in Calm     68% 0.00 in 0 W/m2
20:39 70.4 °F 59.8 °F 30.05 in Calm     69% 0.00 in 0 W/m2
20:44 70.2 °F 59.7 °F 30.06 in Calm     69.3% 0.00 in 0 W/m2
20:49 69.9 °F 59.8 °F 30.06 in Calm     70.2% 0.00 in 0 W/m2
20:54 69.7 °F 59.8 °F 30.06 in Calm     71% 0.00 in 0 W/m2
20:59 69.4 °F 59.9 °F 30.06 in Calm     71.7% 0.00 in 0 W/m2
21:04 69.2 °F 59.8 °F 30.06 in Calm     72% 0.00 in 0 W/m2
21:09 69.1 °F 60 °F 30.06 in Calm     72.8% 0.00 in 0 W/m2
21:14 68.9 °F 59.9 °F 30.07 in Calm     73% 0.00 in 0 W/m2
21:19 68.6 °F 59.6 °F 30.07 in Calm     73% 0.00 in 0 W/m2
21:24 68.5 °F 59.6 °F 30.07 in Calm     73.4% 0.00 in 0 W/m2
21:29 68.3 °F 59.7 °F 30.07 in Calm     73.9% 0.00 in 0 W/m2
21:34 68.1 °F 59.2 °F 30.07 in Calm     73.3% 0.00 in 0 W/m2
21:39 67.9 °F 59.2 °F 30.07 in Calm     73.5% 0.00 in 0 W/m2
21:44 67.8 °F 59.4 °F 30.07 in Calm     74.4% 0.00 in 0 W/m2
21:49 67.6 °F 58.7 °F 30.07 in Calm     73% 0.00 in 0 W/m2
21:54 67.4 °F 58.5 °F 30.07 in Calm     73% 0.00 in 0 W/m2
21:58 67.3 °F 58.4 °F 30.07 in Calm     73% 0.00 in 0 W/m2
22:04 67.2 °F 58.2 °F 30.07 in Calm     73% 0.00 in 0 W/m2
22:09 67.1 °F 58.5 °F 30.06 in Calm     74% 0.00 in 0 W/m2
22:14 67 °F 58.8 °F 30.06 in Calm     75% 0.00 in 0 W/m2
22:19 66.8 °F 59.1 °F 30.06 in Calm     76.1% 0.00 in 0 W/m2
22:24 66.7 °F 59.3 °F 30.06 in Calm     77.1% 0.00 in 0 W/m2
22:29 66.6 °F 59.5 °F 30.06 in Calm     78% 0.00 in 0 W/m2
22:34 66.5 °F 59.6 °F 30.06 in Calm     78.4% 0.00 in 0 W/m2
22:39 66.4 °F 59.7 °F 30.06 in Calm     79% 0.00 in 0 W/m2
22:44 66.2 °F 59.6 °F 30.06 in Calm     79.3% 0.00 in 0 W/m2
22:49 66 °F 59.4 °F 30.07 in Calm     79.3% 0.00 in 0 W/m2
22:54 65.8 °F 59.5 °F 30.07 in Calm     80% 0.00 in 0 W/m2
22:59 65.7 °F 59.3 °F 30.06 in Calm     80% 0.00 in 0 W/m2
23:04 65.6 °F 59.5 °F 30.06 in Calm     80.7% 0.00 in 0 W/m2
23:09 65.4 °F 59.4 °F 30.07 in Calm     81% 0.00 in 0 W/m2
23:14 65.3 °F 59.4 °F 30.07 in Calm     81% 0.00 in 0 W/m2
23:19 65.2 °F 59.3 °F 30.06 in Calm     81% 0.00 in 0 W/m2
23:24 65.2 °F 59.2 °F 30.06 in Calm     81% 0.00 in 0 W/m2
23:29 65.1 °F 59.1 °F 30.06 in Calm     80.9% 0.00 in 0 W/m2
23:34 65.1 °F 58.8 °F 30.07 in Calm     80% 0.00 in 0 W/m2
23:39 65.1 °F 58.9 °F 30.07 in Calm     80.2% 0.00 in 0 W/m2
23:44 65.1 °F 59.1 °F 30.07 in Calm     81% 0.00 in 0 W/m2
23:49 65 °F 59 °F 30.07 in Calm     81% 0.00 in 0 W/m2
23:54 64.9 °F 59 °F 30.07 in Calm     81% 0.00 in 0 W/m2
23:59 64.9 °F 58.9 °F 30.07 in Calm     81% 0.00 in 0 W/m2
Hartford County Weather
Compliments of Weather Underground - 4 mb